• Join FlightAware (Why Join?)
  • Login
  • US Flag 
01:21PM EDT


 

Airport Tracker/Info


-or-


 

Live Flight TrackerFlight Track Log ✈ N1419D ✈ 16-Sep-2013 ✈ KAPF - KDAB

Flight Track Log - Related Links

Times and Time Zones

All times are in EDT time to prevent confusion due to time zone crossing. See the N1419D flight status page for this flight to view local times or setup timezone preferences in your user account.

Time Position Orientation Groundspeed Altitude Reporting Facility
EDT Latitude Longitude Course Direction KTS MPH feet Rate Location/Type
09:30AM 26.9821 -81.5830 11° North  Level Estimated
09:31AM 27.0218 -81.5733 12° North  Level FlightAware Approximate
09:32AM 27.0615 -81.5637 12° North  Level FlightAware Approximate
09:33AM 27.1012 -81.5540 12° North  Level FlightAware Approximate
09:33AM 26.6797 -81.6083 12° North 114 131 7,500  Level Miami Center
09:34AM 27.1409 -81.5443 12° North  Level FlightAware Approximate
09:34AM 26.7111 -81.6028 North 114 131 7,500  Level Miami Center
09:35AM 27.1806 -81.5350 12° North  Level Estimated
09:35AM 26.7425 -81.6039 358° North 114 131 7,500  Level Miami Center
09:36AM 27.2203 -81.5256 12° North  Level FlightAware Approximate
09:36AM 26.7761 -81.6008 North 114 131 7,500  Level Miami Center
09:37AM 27.2601 -81.5160 12° North  Level FlightAware Approximate
09:37AM 26.8075 -81.5972 North 123 142 7,500  Level Miami Center
09:38AM 26.8408 -81.5942 North 123 142 7,500  Level Miami Center
09:39AM 26.8744 -81.5908 North 123 142 7,500  Level Miami Center
09:40AM 26.9081 -81.5875 North 123 142 7,500  Level Miami Center
09:41AM 26.9394 -81.5842 North 123 142 7,500  Level Miami Center
09:42AM 26.9708 -81.5806 North 118 136 7,500  Level Miami Center
09:43AM 27.0044 -81.5750 North 118 136 7,500  Level Miami Center
09:44AM 27.0336 -81.5717 North 118 136 7,500  Level Miami Center
09:45AM 27.0653 -81.5658 North 118 136 7,500 -60 Level Miami Center
09:46AM 27.0967 -81.5625 North 118 136 7,400 -240 Descending Miami Center
09:47AM 27.1322 -81.5592 North 118 136 7,100 -300 Descending Miami Center
09:48AM 27.1658 -81.5489 15° North 125 144 6,800 -300 Descending Miami Center
09:49AM 27.2017 -81.5411 11° North 125 144 6,500 -300 Descending Miami Center
09:50AM 27.2333 -81.5331 13° North 125 144 6,200 -300 Descending Miami Center
09:51AM 27.2669 -81.5228 15° North 125 144 5,900 -300 Descending Miami Center
09:52AM 27.2986 -81.5122 16° North 125 144 5,600 -240 Descending Miami Center
09:53AM 27.3325 -81.5019 15° North 125 144 5,500 -60 Descending Miami Center
09:54AM 27.3600 -81.4914 19° North 119 137 5,500  Level Miami Center
09:55AM 27.3894 -81.4808 18° North 108 124 5,500  Level Miami Center
09:56AM 27.4228 -81.4822 358° North 108 124 5,500  Level Miami Center
09:57AM 27.4539 -81.4858 354° North 108 124 5,500  Level Miami Center
09:58AM 27.4853 -81.4894 354° North 108 124 5,500  Level Miami Center
09:59AM 27.5142 -81.4928 354° North 103 119 5,500  Level Miami Center
10:00AM 27.5453 -81.4989 350° North 103 119 5,500  Level Miami Center
10:01AM 27.5786 -81.5003 358° North 103 119 5,600  Climbing Miami Center
10:02AM 27.6100 -81.5039 354° North 103 119 5,600  Level Miami Center
10:03AM 27.6433 -81.5006 North 103 119 5,600  Level Miami Center
10:04AM 27.6664 -81.4992 North 103 119 5,600  Level Miami Center
10:05AM 27.7042 -81.4936 North 103 119 5,600  Level Miami Center
10:06AM 27.7356 -81.4900 North 103 119 5,600  Level Miami Center
10:07AM 27.7669 -81.4867 North 103 119 5,600  Level Miami Center
10:08AM 27.7983 -81.4833 North 103 119 5,600  Level Miami Center
10:09AM 27.8500 -81.4667 16° North 113 130 5,600  Level Orlando TRACON
10:10AM 27.8833 -81.4667 360° North 114 131 5,600  Level Orlando TRACON
10:11AM 27.9167 -81.4667 360° North 113 130 5,600  Level Orlando TRACON
10:12AM 27.9500 -81.4500 24° Northeast 110 127 5,600  Level Orlando TRACON
10:13AM 27.9667 -81.4333 41° Northeast 112 129 5,600  Level Orlando TRACON
10:14AM 28.0000 -81.4167 24° Northeast 112 129 5,600 240 Level Orlando TRACON
10:15AM 28.0167 -81.4000 41° Northeast 90 104 6,100 480 Climbing Orlando TRACON
10:16AM 28.0500 -81.3833 24° Northeast 83 96 6,600 180 Climbing Orlando TRACON
10:17AM 28.0667 -81.3667 41° Northeast 114 131 6,500 -60 Descending Orlando TRACON
10:18AM 28.0833 -81.3500 41° Northeast 101 116 6,500  Level Orlando TRACON
10:19AM 28.1167 -81.3333 24° Northeast 103 119 6,500  Level Orlando TRACON
10:20AM 28.1500 -81.3333 360° North 105 121 6,500  Level Orlando TRACON
10:21AM 28.1667 -81.3333 360° North 105 121 6,500  Level Orlando TRACON
10:22AM 28.2000 -81.3167 24° Northeast 105 121 6,500  Level Orlando TRACON
10:23AM 28.2333 -81.3167 360° North 105 121 6,500  Level Orlando TRACON
10:24AM 28.2500 -81.3000 41° Northeast 96 110 6,500  Level Orlando TRACON
10:25AM 28.2833 -81.2833 24° Northeast 96 110 6,500  Level Orlando TRACON
10:26AM 28.3000 -81.2667 41° Northeast 94 108 6,500  Level Orlando TRACON
10:27AM 28.3167 -81.2500 41° Northeast 95 109 6,500  Level Orlando TRACON
10:29AM 28.3511 -81.2428 10° North  Level FlightAware Approximate
10:29AM 28.3333 -81.1833 10° North 103 119 6,500  Level Orlando TRACON
10:30AM 28.3333 -81.1500 90° East 103 119 6,600 300 Climbing Orlando TRACON
10:31AM 28.3333 -81.1333 90° East 90 104 7,100 420 Climbing Orlando TRACON
10:32AM 28.3333 -81.1000 90° East 76 87 7,600 180 Climbing Orlando TRACON
10:33AM 28.3500 -81.0833 41° Northeast 110 127 7,500 -60 Descending Orlando TRACON
10:34AM 28.3667 -81.0500 60° Northeast 108 124 7,500  Level Orlando TRACON
10:35AM 28.4000 -81.0333 24° Northeast 100 115 7,500  Level Orlando TRACON
10:36AM 28.4167 -81.0167 41° Northeast 101 116 7,500  Level Orlando TRACON
10:37AM 28.4333 -80.9833 60° Northeast 103 119 7,500  Level Orlando TRACON
10:38AM 28.4500 -80.9667 41° Northeast 104 120 7,500  Level Orlando TRACON
10:39AM 28.4833 -80.9500 24° Northeast 96 110 7,500  Level Orlando TRACON
10:40AM 28.5000 -80.9333 41° Northeast 104 120 7,500  Level Orlando TRACON
10:41AM 28.5333 -80.9333 360° North 119 137 7,500  Level Orlando TRACON
10:42AM 28.5667 -80.9500 336° Northwest 111 128 7,500  Level Orlando TRACON
10:43AM 28.6000 -80.9500 360° North 110 127 7,500  Level Orlando TRACON
10:44AM 28.6167 -80.9667 319° Northwest 110 127 7,500  Level Orlando TRACON
10:45AM 28.6500 -80.9667 360° North 109 125 7,500  Level Orlando TRACON
10:46AM 28.6833 -80.9667 360° North 109 125 7,600  Climbing Orlando TRACON
10:47AM 28.7167 -80.9667 360° North 111 128 7,500 -60 Descending Orlando TRACON
10:48AM 28.7500 -80.9667 360° North 109 125 7,500  Level Orlando TRACON
10:49AM 28.7833 -80.9667 360° North 109 125 7,500  Level Orlando TRACON
10:52AM 28.8472 -80.9797 350° North 108 124 7,500  Level Jacksonville Center
10:53AM 28.8850 -80.9861 352° North 107 123 7,500 -300 Level Jacksonville Center
10:54AM 28.9142 -80.9878 357° North 111 128 6,900 -720 Descending Jacksonville Center
10:55AM 28.9475 -80.9850 North 121 139 6,200 -720 Descending Jacksonville Center
10:56AM 28.9808 -80.9819 North 120 138 5,500 -780 Descending Jacksonville Center
10:57AM 29.0100 -80.9767 North 108 124 4,700 -960 Descending Jacksonville Center
10:58AM 29.0414 -80.9711 North 103 119 3,600 -1,140 Descending Jacksonville Center
10:59AM 29.0642 -80.9683 North 107 123 2,700 -1,140 Descending Jacksonville Center
11:00AM 29.0939 -80.9986 318° Northwest 133 153 1,500 -540 Descending Jacksonville Center
11:01AM 29.1194 -81.0361 308° West 120 138 1,500  Level Jacksonville Center
11:02AM 29.1467 -81.0500 336° Northwest 106 122 1,500 -360 Level Jacksonville Center
11:03AM 29.1594 -81.0664 312° West 101 116 800 -720 Descending Jacksonville Center
11:04AM 29.1681 -81.0708 336° Northwest 76 87 300 -720 Descending Jacksonville Center